Fortunate — 3FLG6 — position and weather

sailwx.info

Track history (hours):
 
Tides and Currents Weather Stations Pressure Air Temp Water Temp Dewpoint Dewpoint Depression Visibility Wind Speed Wind Dir Waves Ship Positions

Fortunate

Last reported at 2017-Jun-03 04:07 UTC. Time now 2017-Jun-23 00:11 UTC.
Position N 01°14' E 104°01'.
Warning: this ship's position is 19 days out of date.

Length 275 m; draft 10.1 m.

Type: Ship (hazmat cat A). MMSI: 356708000.

Date/timePositionNaut miles runAvg speedWind from/ knotsBaromVisibWave heightAir tempDewpointWater temp
2017-Jun-03 04:07N 01°14' E 104°01'113.6
2017-Jun-03 04:00N 01°14' E 103°60'713.4
2017-Jun-03 03:30N 01°12' E 103°53'5 9.4
2017-Jun-03 03:00N 01°12' E 103°48'510.6
2017-Jun-03 02:30N 01°16' E 103°45'1 1.6
2017-Jun-03 01:57N 01°17' E 103°45'0 0.0
2017-Jun-03 01:30N 01°17' E 103°45'0 0.0
2017-Jun-03 00:54N 01°17' E 103°45'0 0.0
2017-Jun-03 00:30N 01°17' E 103°45'0 0.0
2017-Jun-03 00:00N 01°17' E 103°45'0 0.0
2017-Jun-02 23:30N 01°17' E 103°45'0 0.0
2017-Jun-02 22:57N 01°17' E 103°45'0 0.0
2017-Jun-02 22:30N 01°17' E 103°45'0 0.0
2017-Jun-02 22:00N 01°17' E 103°45'0 0.0
2017-Jun-02 21:30N 01°17' E 103°45'0 0.0
2017-Jun-02 20:57N 01°17' E 103°45'0 0.0
2017-Jun-02 20:30N 01°17' E 103°45'0 0.0
2017-Jun-02 20:00N 01°17' E 103°45'0 0.0
2017-Jun-02 19:27N 01°17' E 103°45'0 0.0
2017-Jun-02 18:57N 01°17' E 103°45'0 0.0
2017-Jun-02 18:30N 01°17' E 103°45'0 0.0
2017-Jun-02 17:57N 01°17' E 103°45'0 0.0
2017-Jun-02 17:30N 01°17' E 103°45'0 0.0
2017-Jun-02 16:57N 01°17' E 103°45'0 0.0
2017-Jun-02 16:30N 01°17' E 103°45'0 0.0
2017-Jun-02 16:00N 01°17' E 103°45'0 0.0
2017-Jun-02 15:30N 01°17' E 103°45'0 0.0
2017-Jun-02 15:00N 01°17' E 103°45'0 0.0
2017-Jun-02 14:30N 01°17' E 103°45'0 0.0
2017-Jun-02 13:30N 01°17' E 103°45'0 0.0
2017-Jun-02 12:57N 01°17' E 103°45'0 0.0
2017-Jun-02 12:30N 01°17' E 103°45'0 0.0
2017-Jun-02 12:00N 01°17' E 103°45'0 0.2
2017-Jun-02 11:30N 01°17' E 103°46'1 1.3
2017-Jun-02 11:00N 01°17' E 103°45'2 5.0
2017-Jun-02 10:30N 01°15' E 103°45'611.3
2017-Jun-02 10:00N 01°12' E 103°40'4 8.3
2017-Jun-02 09:30N 01°12' E 103°36'3 5.2
2017-Jun-02 09:00N 01°11' E 103°34'2 4.9
2017-Jun-02 08:30N 01°10' E 103°31'4 7.5
2017-Jun-02 08:00N 01°11' E 103°27'2 4.9
2017-Jun-02 07:30N 01°12' E 103°25'2 4.3
2017-Jun-02 06:58N 01°13' E 103°23'4 8.3
2017-Jun-02 06:29N 01°16' E 103°20'52 9.1
2017-Jun-02 00:50N 01°43' E 102°37'3 9.0
2017-Jun-02 00:30N 01°44' E 102°34'6 8.7
2017-Jun-01 23:52N 01°47' E 102°29'3 8.6
2017-Jun-01 23:30N 01°48' E 102°26'4 8.8
2017-Jun-01 23:00N 01°50' E 102°22'5 8.8
2017-Jun-01 22:29N 01°52' E 102°18'  
Track history (hours):
 
Tides and Currents Weather Stations Pressure Air Temp Water Temp Dewpoint Dewpoint Depression Visibility Wind Speed Wind Dir Waves Ship Positions

Fortunate

Last reported at 2017-Jun-03 04:07 UTC. Time now 2017-Jun-23 00:11 UTC.
Position N 01°14' E 104°01'.
Warning: this ship's position is 19 days out of date.

Length 275 m; draft 10.1 m.

Type: Ship (hazmat cat A). MMSI: 356708000.

Date/timePositionNaut miles runAvg speedWind from/ knotsBaromVisibWave heightAir tempDewpointWater temp
2017-Jun-03 04:07N 01°14' E 104°01'113.6
2017-Jun-03 04:00N 01°14' E 103°60'713.4
2017-Jun-03 03:30N 01°12' E 103°53'5 9.4
2017-Jun-03 03:00N 01°12' E 103°48'510.6
2017-Jun-03 02:30N 01°16' E 103°45'1 1.6
2017-Jun-03 01:57N 01°17' E 103°45'0 0.0
2017-Jun-03 01:30N 01°17' E 103°45'0 0.0
2017-Jun-03 00:54N 01°17' E 103°45'0 0.0
2017-Jun-03 00:30N 01°17' E 103°45'0 0.0
2017-Jun-03 00:00N 01°17' E 103°45'0 0.0
2017-Jun-02 23:30N 01°17' E 103°45'0 0.0
2017-Jun-02 22:57N 01°17' E 103°45'0 0.0
2017-Jun-02 22:30N 01°17' E 103°45'0 0.0
2017-Jun-02 22:00N 01°17' E 103°45'0 0.0
2017-Jun-02 21:30N 01°17' E 103°45'0 0.0
2017-Jun-02 20:57N 01°17' E 103°45'0 0.0
2017-Jun-02 20:30N 01°17' E 103°45'0 0.0
2017-Jun-02 20:00N 01°17' E 103°45'0 0.0
2017-Jun-02 19:27N 01°17' E 103°45'0 0.0
2017-Jun-02 18:57N 01°17' E 103°45'0 0.0
2017-Jun-02 18:30N 01°17' E 103°45'0 0.0
2017-Jun-02 17:57N 01°17' E 103°45'0 0.0
2017-Jun-02 17:30N 01°17' E 103°45'0 0.0
2017-Jun-02 16:57N 01°17' E 103°45'0 0.0
2017-Jun-02 16:30N 01°17' E 103°45'0 0.0
2017-Jun-02 16:00N 01°17' E 103°45'0 0.0
2017-Jun-02 15:30N 01°17' E 103°45'0 0.0
2017-Jun-02 15:00N 01°17' E 103°45'0 0.0
2017-Jun-02 14:30N 01°17' E 103°45'0 0.0
2017-Jun-02 13:30N 01°17' E 103°45'0 0.0
2017-Jun-02 12:57N 01°17' E 103°45'0 0.0
2017-Jun-02 12:30N 01°17' E 103°45'0 0.0
2017-Jun-02 12:00N 01°17' E 103°45'0 0.2
2017-Jun-02 11:30N 01°17' E 103°46'1 1.3
2017-Jun-02 11:00N 01°17' E 103°45'2 5.0
2017-Jun-02 10:30N 01°15' E 103°45'611.3
2017-Jun-02 10:00N 01°12' E 103°40'4 8.3
2017-Jun-02 09:30N 01°12' E 103°36'3 5.2
2017-Jun-02 09:00N 01°11' E 103°34'2 4.9
2017-Jun-02 08:30N 01°10' E 103°31'4 7.5
2017-Jun-02 08:00N 01°11' E 103°27'2 4.9
2017-Jun-02 07:30N 01°12' E 103°25'2 4.3
2017-Jun-02 06:58N 01°13' E 103°23'4 8.3
2017-Jun-02 06:29N 01°16' E 103°20'52 9.1
2017-Jun-02 00:50N 01°43' E 102°37'3 9.0
2017-Jun-02 00:30N 01°44' E 102°34'6 8.7
2017-Jun-01 23:52N 01°47' E 102°29'3 8.6
2017-Jun-01 23:30N 01°48' E 102°26'4 8.8
2017-Jun-01 23:00N 01°50' E 102°22'5 8.8
2017-Jun-01 22:29N 01°52' E 102°18'  

Dump ship's entire track history